sensor_id;sensor_type;location;lat;lon;timestamp;P1;durP1;ratioP1;P2;durP2;ratioP2
9424;SDS011;17139;52.140;11.636;2022-09-03T00:02:08;2.17;;;0.80;;
9424;SDS011;17139;52.140;11.636;2022-09-03T00:04:41;1.17;;;1.13;;
9424;SDS011;17139;52.140;11.636;2022-09-03T00:07:18;0.95;;;0.95;;
9424;SDS011;17139;52.140;11.636;2022-09-03T00:09:53;0.88;;;0.88;;
9424;SDS011;17139;52.140;11.636;2022-09-03T00:12:25;0.90;;;0.90;;
9424;SDS011;17139;52.140;11.636;2022-09-03T00:14:56;1.83;;;0.95;;
9424;SDS011;17139;52.140;11.636;2022-09-03T00:17:31;1.27;;;0.98;;
9424;SDS011;17139;52.140;11.636;2022-09-03T00:20:05;0.93;;;0.88;;
9424;SDS011;17139;52.140;11.636;2022-09-03T00:22:36;0.75;;;0.75;;
9424;SDS011;17139;52.140;11.636;2022-09-03T00:25:08;0.73;;;0.70;;
9424;SDS011;17139;52.140;11.636;2022-09-03T00:27:39;0.70;;;0.70;;
9424;SDS011;17139;52.140;11.636;2022-09-03T00:30:09;0.82;;;0.82;;
9424;SDS011;17139;52.140;11.636;2022-09-03T00:32:39;0.93;;;0.93;;
9424;SDS011;17139;52.140;11.636;2022-09-03T00:35:14;0.93;;;0.93;;
9424;SDS011;17139;52.140;11.636;2022-09-03T00:37:45;1.10;;;1.00;;
9424;SDS011;17139;52.140;11.636;2022-09-03T00:40:15;3.17;;;0.90;;
9424;SDS011;17139;52.140;11.636;2022-09-03T00:42:55;2.38;;;0.85;;
9424;SDS011;17139;52.140;11.636;2022-09-03T00:45:30;0.90;;;0.90;;
9424;SDS011;17139;52.140;11.636;2022-09-03T00:48:05;0.82;;;0.82;;
9424;SDS011;17139;52.140;11.636;2022-09-03T00:50:54;1.10;;;1.00;;
9424;SDS011;17139;52.140;11.636;2022-09-03T00:53:38;0.93;;;0.93;;
9424;SDS011;17139;52.140;11.636;2022-09-03T00:56:12;0.93;;;0.90;;
9424;SDS011;17139;52.140;11.636;2022-09-03T00:58:49;2.10;;;1.00;;
9424;SDS011;17139;52.140;11.636;2022-09-03T01:01:27;1.13;;;1.13;;
9424;SDS011;17139;52.140;11.636;2022-09-03T01:04:07;1.10;;;0.93;;
9424;SDS011;17139;52.140;11.636;2022-09-03T01:06:54;3.30;;;1.05;;
9424;SDS011;17139;52.140;11.636;2022-09-03T01:09:30;0.98;;;0.98;;
9424;SDS011;17139;52.140;11.636;2022-09-03T01:12:06;2.28;;;0.90;;
9424;SDS011;17139;52.140;11.636;2022-09-03T01:14:42;0.80;;;0.80;;
9424;SDS011;17139;52.140;11.636;2022-09-03T01:17:18;0.70;;;0.70;;
9424;SDS011;17139;52.140;11.636;2022-09-03T01:19:57;1.42;;;1.42;;
9424;SDS011;17139;52.140;11.636;2022-09-03T01:25:34;0.80;;;0.80;;
9424;SDS011;17139;52.140;11.636;2022-09-03T01:28:17;1.35;;;1.05;;
9424;SDS011;17139;52.140;11.636;2022-09-03T01:30:51;0.80;;;0.80;;
9424;SDS011;17139;52.140;11.636;2022-09-03T01:33:23;0.80;;;0.80;;
9424;SDS011;17139;52.140;11.636;2022-09-03T01:36:01;1.10;;;1.10;;
9424;SDS011;17139;52.140;11.636;2022-09-03T01:38:37;0.60;;;0.60;;
9424;SDS011;17139;52.140;11.636;2022-09-03T01:41:11;1.00;;;1.00;;
9424;SDS011;17139;52.140;11.636;2022-09-03T01:44:04;1.37;;;1.00;;
9424;SDS011;17139;52.140;11.636;2022-09-03T01:46:41;2.58;;;1.05;;
9424;SDS011;17139;52.140;11.636;2022-09-03T01:49:13;1.20;;;1.10;;
9424;SDS011;17139;52.140;11.636;2022-09-03T01:51:47;0.70;;;0.70;;
9424;SDS011;17139;52.140;11.636;2022-09-03T01:54:26;1.10;;;1.00;;
9424;SDS011;17139;52.140;11.636;2022-09-03T01:57:25;1.10;;;1.10;;
9424;SDS011;17139;52.140;11.636;2022-09-03T02:00:06;1.10;;;1.10;;
9424;SDS011;17139;52.140;11.636;2022-09-03T02:02:37;0.70;;;0.70;;
9424;SDS011;17139;52.140;11.636;2022-09-03T02:05:06;1.00;;;1.00;;
9424;SDS011;17139;52.140;11.636;2022-09-03T02:07:37;0.67;;;0.67;;
9424;SDS011;17139;52.140;11.636;2022-09-03T02:10:07;0.73;;;0.73;;
9424;SDS011;17139;52.140;11.636;2022-09-03T02:12:37;1.17;;;1.17;;
9424;SDS011;17139;52.140;11.636;2022-09-03T02:15:09;0.80;;;0.80;;
9424;SDS011;17139;52.140;11.636;2022-09-03T02:17:39;1.00;;;1.00;;
9424;SDS011;17139;52.140;11.636;2022-09-03T02:20:09;0.80;;;0.80;;
9424;SDS011;17139;52.140;11.636;2022-09-03T02:22:44;0.80;;;0.80;;
9424;SDS011;17139;52.140;11.636;2022-09-03T02:25:12;0.87;;;0.87;;
9424;SDS011;17139;52.140;11.636;2022-09-03T02:27:39;2.60;;;0.80;;
9424;SDS011;17139;52.140;11.636;2022-09-03T02:30:09;0.83;;;0.83;;
9424;SDS011;17139;52.140;11.636;2022-09-03T02:32:37;1.03;;;1.03;;
9424;SDS011;17139;52.140;11.636;2022-09-03T02:35:04;0.83;;;0.83;;
9424;SDS011;17139;52.140;11.636;2022-09-03T02:37:31;0.97;;;0.90;;
9424;SDS011;17139;52.140;11.636;2022-09-03T02:39:59;1.00;;;1.00;;
9424;SDS011;17139;52.140;11.636;2022-09-03T02:42:26;1.10;;;1.10;;
9424;SDS011;17139;52.140;11.636;2022-09-03T02:44:54;0.93;;;0.93;;
9424;SDS011;17139;52.140;11.636;2022-09-03T02:47:28;2.43;;;1.10;;
9424;SDS011;17139;52.140;11.636;2022-09-03T02:49:58;0.70;;;0.70;;
9424;SDS011;17139;52.140;11.636;2022-09-03T02:52:25;0.63;;;0.63;;
9424;SDS011;17139;52.140;11.636;2022-09-03T02:54:52;3.13;;;0.80;;
9424;SDS011;17139;52.140;11.636;2022-09-03T02:57:19;0.90;;;0.90;;
9424;SDS011;17139;52.140;11.636;2022-09-03T02:59:46;2.23;;;1.03;;
9424;SDS011;17139;52.140;11.636;2022-09-03T03:02:13;1.00;;;1.00;;
9424;SDS011;17139;52.140;11.636;2022-09-03T03:04:41;1.00;;;1.00;;
9424;SDS011;17139;52.140;11.636;2022-09-03T03:07:08;3.40;;;1.17;;
9424;SDS011;17139;52.140;11.636;2022-09-03T03:09:35;1.45;;;1.20;;
9424;SDS011;17139;52.140;11.636;2022-09-03T03:12:02;2.93;;;1.07;;
9424;SDS011;17139;52.140;11.636;2022-09-03T03:14:29;1.00;;;1.00;;
9424;SDS011;17139;52.140;11.636;2022-09-03T03:16:56;1.70;;;1.60;;
9424;SDS011;17139;52.140;11.636;2022-09-03T03:19:23;1.33;;;1.07;;
9424;SDS011;17139;52.140;11.636;2022-09-03T03:21:52;0.98;;;0.98;;
9424;SDS011;17139;52.140;11.636;2022-09-03T03:24:19;4.63;;;0.93;;
9424;SDS011;17139;52.140;11.636;2022-09-03T03:26:45;3.10;;;0.90;;
9424;SDS011;17139;52.140;11.636;2022-09-03T03:29:13;1.00;;;1.00;;
9424;SDS011;17139;52.140;11.636;2022-09-03T03:31:42;3.90;;;1.10;;
9424;SDS011;17139;52.140;11.636;2022-09-03T03:34:09;0.93;;;0.90;;
9424;SDS011;17139;52.140;11.636;2022-09-03T03:36:36;0.80;;;0.80;;
9424;SDS011;17139;52.140;11.636;2022-09-03T03:39:04;1.10;;;1.10;;
9424;SDS011;17139;52.140;11.636;2022-09-03T03:41:32;0.80;;;0.80;;
9424;SDS011;17139;52.140;11.636;2022-09-03T03:44:02;0.90;;;0.90;;
9424;SDS011;17139;52.140;11.636;2022-09-03T03:46:31;1.10;;;1.10;;
9424;SDS011;17139;52.140;11.636;2022-09-03T03:49:00;0.97;;;0.90;;
9424;SDS011;17139;52.140;11.636;2022-09-03T03:51:28;2.83;;;1.40;;
9424;SDS011;17139;52.140;11.636;2022-09-03T03:53:56;1.65;;;1.50;;
9424;SDS011;17139;52.140;11.636;2022-09-03T03:56:25;1.40;;;1.30;;
9424;SDS011;17139;52.140;11.636;2022-09-03T03:58:53;2.40;;;1.40;;
9424;SDS011;17139;52.140;11.636;2022-09-03T04:01:22;1.33;;;1.33;;
9424;SDS011;17139;52.140;11.636;2022-09-03T04:03:50;1.30;;;1.30;;
9424;SDS011;17139;52.140;11.636;2022-09-03T04:06:20;1.30;;;1.20;;
9424;SDS011;17139;52.140;11.636;2022-09-03T04:08:47;1.90;;;1.20;;
9424;SDS011;17139;52.140;11.636;2022-09-03T04:11:16;1.10;;;1.10;;
9424;SDS011;17139;52.140;11.636;2022-09-03T04:13:46;1.23;;;1.23;;
9424;SDS011;17139;52.140;11.636;2022-09-03T04:16:14;0.90;;;0.90;;
9424;SDS011;17139;52.140;11.636;2022-09-03T04:18:43;2.43;;;1.10;;
9424;SDS011;17139;52.140;11.636;2022-09-03T04:21:12;0.80;;;0.80;;
9424;SDS011;17139;52.140;11.636;2022-09-03T04:23:40;1.20;;;1.20;;
9424;SDS011;17139;52.140;11.636;2022-09-03T04:26:09;1.10;;;1.10;;
9424;SDS011;17139;52.140;11.636;2022-09-03T04:28:37;1.13;;;1.13;;
9424;SDS011;17139;52.140;11.636;2022-09-03T04:31:07;1.40;;;1.07;;
9424;SDS011;17139;52.140;11.636;2022-09-03T04:33:36;1.23;;;1.23;;
9424;SDS011;17139;52.140;11.636;2022-09-03T04:36:04;1.23;;;1.23;;
9424;SDS011;17139;52.140;11.636;2022-09-03T04:38:32;1.10;;;1.10;;
9424;SDS011;17139;52.140;11.636;2022-09-03T04:41:00;2.37;;;1.13;;
9424;SDS011;17139;52.140;11.636;2022-09-03T04:43:27;1.90;;;1.27;;
9424;SDS011;17139;52.140;11.636;2022-09-03T04:45:55;1.20;;;1.20;;
9424;SDS011;17139;52.140;11.636;2022-09-03T04:48:25;1.30;;;1.30;;
9424;SDS011;17139;52.140;11.636;2022-09-03T04:50:52;1.57;;;1.50;;
9424;SDS011;17139;52.140;11.636;2022-09-03T04:53:20;1.50;;;1.50;;
9424;SDS011;17139;52.140;11.636;2022-09-03T04:55:47;1.37;;;1.13;;
9424;SDS011;17139;52.140;11.636;2022-09-03T04:58:15;1.00;;;1.00;;
9424;SDS011;17139;52.140;11.636;2022-09-03T05:00:42;1.13;;;1.13;;
9424;SDS011;17139;52.140;11.636;2022-09-03T05:03:09;3.30;;;1.37;;
9424;SDS011;17139;52.140;11.636;2022-09-03T05:05:38;3.23;;;1.80;;
9424;SDS011;17139;52.140;11.636;2022-09-03T05:08:04;2.50;;;1.50;;
9424;SDS011;17139;52.140;11.636;2022-09-03T05:10:32;1.67;;;1.30;;
9424;SDS011;17139;52.140;11.636;2022-09-03T05:12:59;1.90;;;1.40;;
9424;SDS011;17139;52.140;11.636;2022-09-03T05:15:27;1.70;;;1.40;;
9424;SDS011;17139;52.140;11.636;2022-09-03T05:17:56;1.30;;;1.20;;
9424;SDS011;17139;52.140;11.636;2022-09-03T05:20:23;1.30;;;1.30;;
9424;SDS011;17139;52.140;11.636;2022-09-03T05:22:52;3.30;;;1.40;;
9424;SDS011;17139;52.140;11.636;2022-09-03T05:25:19;1.30;;;1.30;;
9424;SDS011;17139;52.140;11.636;2022-09-03T05:27:47;1.27;;;1.17;;
9424;SDS011;17139;52.140;11.636;2022-09-03T05:30:14;4.73;;;1.37;;
9424;SDS011;17139;52.140;11.636;2022-09-03T05:32:41;1.63;;;1.52;;
9424;SDS011;17139;52.140;11.636;2022-09-03T05:35:08;1.40;;;1.30;;
9424;SDS011;17139;52.140;11.636;2022-09-03T05:37:36;2.25;;;1.52;;
9424;SDS011;17139;52.140;11.636;2022-09-03T05:40:06;3.97;;;1.50;;
9424;SDS011;17139;52.140;11.636;2022-09-03T05:42:35;1.67;;;1.30;;
9424;SDS011;17139;52.140;11.636;2022-09-03T05:45:04;1.63;;;1.53;;
9424;SDS011;17139;52.140;11.636;2022-09-03T05:47:35;1.80;;;1.70;;
9424;SDS011;17139;52.140;11.636;2022-09-03T05:50:04;1.20;;;1.20;;
9424;SDS011;17139;52.140;11.636;2022-09-03T05:52:32;2.40;;;1.33;;
9424;SDS011;17139;52.140;11.636;2022-09-03T05:55:00;3.30;;;1.40;;
9424;SDS011;17139;52.140;11.636;2022-09-03T05:57:28;1.73;;;1.30;;
9424;SDS011;17139;52.140;11.636;2022-09-03T05:59:56;1.50;;;1.50;;
9424;SDS011;17139;52.140;11.636;2022-09-03T06:02:24;4.77;;;1.43;;
9424;SDS011;17139;52.140;11.636;2022-09-03T06:04:51;2.40;;;1.70;;
9424;SDS011;17139;52.140;11.636;2022-09-03T06:07:18;1.40;;;1.40;;
9424;SDS011;17139;52.140;11.636;2022-09-03T06:09:46;2.22;;;1.25;;
9424;SDS011;17139;52.140;11.636;2022-09-03T06:12:13;1.80;;;1.40;;
9424;SDS011;17139;52.140;11.636;2022-09-03T06:14:41;1.40;;;1.33;;
9424;SDS011;17139;52.140;11.636;2022-09-03T06:17:08;1.35;;;1.27;;
9424;SDS011;17139;52.140;11.636;2022-09-03T06:19:36;1.00;;;1.00;;
9424;SDS011;17139;52.140;11.636;2022-09-03T06:22:04;3.43;;;1.27;;
9424;SDS011;17139;52.140;11.636;2022-09-03T06:24:31;1.63;;;1.53;;
9424;SDS011;17139;52.140;11.636;2022-09-03T06:26:58;1.57;;;1.43;;
9424;SDS011;17139;52.140;11.636;2022-09-03T06:29:25;1.20;;;1.20;;
9424;SDS011;17139;52.140;11.636;2022-09-03T06:31:53;3.58;;;1.60;;
9424;SDS011;17139;52.140;11.636;2022-09-03T06:34:21;2.88;;;1.58;;
9424;SDS011;17139;52.140;11.636;2022-09-03T06:36:50;1.00;;;1.00;;
9424;SDS011;17139;52.140;11.636;2022-09-03T06:39:18;1.45;;;1.38;;
9424;SDS011;17139;52.140;11.636;2022-09-03T06:41:45;1.42;;;1.35;;
9424;SDS011;17139;52.140;11.636;2022-09-03T06:44:12;1.27;;;1.27;;
9424;SDS011;17139;52.140;11.636;2022-09-03T06:46:39;1.42;;;1.20;;
9424;SDS011;17139;52.140;11.636;2022-09-03T06:49:08;3.70;;;1.77;;
9424;SDS011;17139;52.140;11.636;2022-09-03T06:51:36;1.33;;;1.33;;
9424;SDS011;17139;52.140;11.636;2022-09-03T06:54:05;1.98;;;1.63;;
9424;SDS011;17139;52.140;11.636;2022-09-03T06:56:34;2.83;;;1.75;;
9424;SDS011;17139;52.140;11.636;2022-09-03T06:59:03;2.47;;;1.80;;
9424;SDS011;17139;52.140;11.636;2022-09-03T07:01:32;1.48;;;1.48;;
9424;SDS011;17139;52.140;11.636;2022-09-03T07:04:00;3.70;;;1.52;;
9424;SDS011;17139;52.140;11.636;2022-09-03T07:06:29;1.42;;;1.38;;
9424;SDS011;17139;52.140;11.636;2022-09-03T07:08:57;2.88;;;1.55;;
9424;SDS011;17139;52.140;11.636;2022-09-03T07:11:25;1.85;;;1.38;;
9424;SDS011;17139;52.140;11.636;2022-09-03T07:13:53;2.45;;;1.45;;
9424;SDS011;17139;52.140;11.636;2022-09-03T07:16:21;1.45;;;1.42;;
9424;SDS011;17139;52.140;11.636;2022-09-03T07:18:49;2.72;;;1.58;;
9424;SDS011;17139;52.140;11.636;2022-09-03T07:21:17;1.30;;;1.30;;
9424;SDS011;17139;52.140;11.636;2022-09-03T07:23:47;1.60;;;1.58;;
9424;SDS011;17139;52.140;11.636;2022-09-03T07:26:16;4.15;;;1.50;;
9424;SDS011;17139;52.140;11.636;2022-09-03T07:28:45;1.52;;;1.40;;
9424;SDS011;17139;52.140;11.636;2022-09-03T07:31:14;3.55;;;1.42;;
9424;SDS011;17139;52.140;11.636;2022-09-03T07:33:43;1.80;;;1.70;;
9424;SDS011;17139;52.140;11.636;2022-09-03T07:36:11;2.75;;;1.55;;
9424;SDS011;17139;52.140;11.636;2022-09-03T07:38:40;1.30;;;1.30;;
9424;SDS011;17139;52.140;11.636;2022-09-03T07:41:10;1.90;;;1.40;;
9424;SDS011;17139;52.140;11.636;2022-09-03T07:43:38;1.38;;;1.27;;
9424;SDS011;17139;52.140;11.636;2022-09-03T07:46:07;2.05;;;1.73;;
9424;SDS011;17139;52.140;11.636;2022-09-03T07:48:37;1.55;;;1.40;;
9424;SDS011;17139;52.140;11.636;2022-09-03T07:51:04;1.95;;;1.50;;
9424;SDS011;17139;52.140;11.636;2022-09-03T07:53:32;1.98;;;1.42;;
9424;SDS011;17139;52.140;11.636;2022-09-03T07:56:03;1.40;;;1.30;;
9424;SDS011;17139;52.140;11.636;2022-09-03T07:58:32;1.60;;;1.50;;
9424;SDS011;17139;52.140;11.636;2022-09-03T08:01:02;3.70;;;1.30;;
9424;SDS011;17139;52.140;11.636;2022-09-03T08:03:32;4.30;;;1.45;;
9424;SDS011;17139;52.140;11.636;2022-09-03T08:06:00;3.35;;;1.42;;
9424;SDS011;17139;52.140;11.636;2022-09-03T08:08:28;4.07;;;1.50;;
9424;SDS011;17139;52.140;11.636;2022-09-03T08:11:01;2.58;;;1.40;;
9424;SDS011;17139;52.140;11.636;2022-09-03T08:13:29;1.65;;;1.27;;
9424;SDS011;17139;52.140;11.636;2022-09-03T08:15:58;2.30;;;1.42;;
9424;SDS011;17139;52.140;11.636;2022-09-03T08:18:25;1.58;;;1.50;;
9424;SDS011;17139;52.140;11.636;2022-09-03T08:21:02;1.30;;;1.30;;
9424;SDS011;17139;52.140;11.636;2022-09-03T08:23:31;1.30;;;1.20;;
9424;SDS011;17139;52.140;11.636;2022-09-03T08:25:59;1.45;;;1.40;;
9424;SDS011;17139;52.140;11.636;2022-09-03T08:28:27;2.67;;;1.70;;
9424;SDS011;17139;52.140;11.636;2022-09-03T08:30:59;1.75;;;1.63;;
9424;SDS011;17139;52.140;11.636;2022-09-03T08:33:31;1.67;;;1.58;;
9424;SDS011;17139;52.140;11.636;2022-09-03T08:36:05;2.97;;;2.75;;
9424;SDS011;17139;52.140;11.636;2022-09-03T08:38:33;1.50;;;1.40;;
9424;SDS011;17139;52.140;11.636;2022-09-03T08:41:03;1.48;;;1.48;;
9424;SDS011;17139;52.140;11.636;2022-09-03T08:43:32;1.27;;;1.23;;
9424;SDS011;17139;52.140;11.636;2022-09-03T08:46:15;1.10;;;1.00;;
9424;SDS011;17139;52.140;11.636;2022-09-03T08:48:42;2.25;;;1.45;;
9424;SDS011;17139;52.140;11.636;2022-09-03T08:51:11;1.30;;;1.30;;
9424;SDS011;17139;52.140;11.636;2022-09-03T08:53:43;1.10;;;1.10;;
9424;SDS011;17139;52.140;11.636;2022-09-03T08:56:13;1.45;;;1.38;;
9424;SDS011;17139;52.140;11.636;2022-09-03T08:58:46;3.25;;;1.42;;
9424;SDS011;17139;52.140;11.636;2022-09-03T09:01:18;1.50;;;1.42;;
9424;SDS011;17139;52.140;11.636;2022-09-03T09:03:59;2.83;;;1.25;;
9424;SDS011;17139;52.140;11.636;2022-09-03T09:06:34;1.27;;;1.27;;
9424;SDS011;17139;52.140;11.636;2022-09-03T09:09:08;1.02;;;1.02;;
9424;SDS011;17139;52.140;11.636;2022-09-03T09:11:49;1.10;;;1.10;;
9424;SDS011;17139;52.140;11.636;2022-09-03T09:14:28;1.65;;;1.55;;
9424;SDS011;17139;52.140;11.636;2022-09-03T09:17:07;1.88;;;1.50;;
9424;SDS011;17139;52.140;11.636;2022-09-03T09:19:47;1.00;;;1.00;;
9424;SDS011;17139;52.140;11.636;2022-09-03T09:22:25;2.58;;;1.52;;
9424;SDS011;17139;52.140;11.636;2022-09-03T09:24:56;3.55;;;1.65;;
9424;SDS011;17139;52.140;11.636;2022-09-03T09:27:27;3.95;;;1.23;;
9424;SDS011;17139;52.140;11.636;2022-09-03T09:29:54;1.10;;;1.10;;
9424;SDS011;17139;52.140;11.636;2022-09-03T09:32:28;1.42;;;1.42;;
9424;SDS011;17139;52.140;11.636;2022-09-03T09:34:56;3.43;;;1.30;;
9424;SDS011;17139;52.140;11.636;2022-09-03T09:37:23;1.65;;;1.05;;
9424;SDS011;17139;52.140;11.636;2022-09-03T09:39:54;5.60;;;1.45;;
9424;SDS011;17139;52.140;11.636;2022-09-03T09:42:23;3.03;;;1.35;;
9424;SDS011;17139;52.140;11.636;2022-09-03T09:44:50;1.20;;;1.10;;
9424;SDS011;17139;52.140;11.636;2022-09-03T09:47:20;3.97;;;2.03;;
9424;SDS011;17139;52.140;11.636;2022-09-03T09:49:52;1.35;;;1.35;;
9424;SDS011;17139;52.140;11.636;2022-09-03T09:52:21;1.98;;;1.05;;
9424;SDS011;17139;52.140;11.636;2022-09-03T09:54:52;6.78;;;1.30;;
9424;SDS011;17139;52.140;11.636;2022-09-03T09:57:32;1.75;;;1.50;;
9424;SDS011;17139;52.140;11.636;2022-09-03T10:00:04;1.23;;;1.23;;
9424;SDS011;17139;52.140;11.636;2022-09-03T10:02:34;1.80;;;1.50;;
9424;SDS011;17139;52.140;11.636;2022-09-03T10:05:12;1.30;;;1.30;;
9424;SDS011;17139;52.140;11.636;2022-09-03T10:07:40;4.07;;;1.30;;
9424;SDS011;17139;52.140;11.636;2022-09-03T10:10:13;1.40;;;1.30;;
9424;SDS011;17139;52.140;11.636;2022-09-03T10:12:44;1.10;;;1.10;;
9424;SDS011;17139;52.140;11.636;2022-09-03T10:15:21;1.38;;;1.25;;
9424;SDS011;17139;52.140;11.636;2022-09-03T10:17:55;1.15;;;1.15;;
9424;SDS011;17139;52.140;11.636;2022-09-03T10:20:30;1.10;;;1.10;;
9424;SDS011;17139;52.140;11.636;2022-09-03T10:23:04;1.42;;;1.17;;
9424;SDS011;17139;52.140;11.636;2022-09-03T10:25:39;2.65;;;1.60;;
9424;SDS011;17139;52.140;11.636;2022-09-03T10:28:17;1.13;;;1.13;;
9424;SDS011;17139;52.140;11.636;2022-09-03T10:31:01;1.83;;;1.10;;
9424;SDS011;17139;52.140;11.636;2022-09-03T10:33:41;1.27;;;1.25;;
9424;SDS011;17139;52.140;11.636;2022-09-03T10:36:17;1.27;;;1.20;;
9424;SDS011;17139;52.140;11.636;2022-09-03T10:38:50;3.10;;;1.30;;
9424;SDS011;17139;52.140;11.636;2022-09-03T10:41:24;3.50;;;1.30;;
9424;SDS011;17139;52.140;11.636;2022-09-03T10:44:14;1.63;;;1.52;;
9424;SDS011;17139;52.140;11.636;2022-09-03T10:46:54;1.67;;;1.58;;
9424;SDS011;17139;52.140;11.636;2022-09-03T10:49:33;1.38;;;1.38;;
9424;SDS011;17139;52.140;11.636;2022-09-03T10:52:16;1.23;;;1.23;;
9424;SDS011;17139;52.140;11.636;2022-09-03T10:54:54;1.20;;;1.20;;
9424;SDS011;17139;52.140;11.636;2022-09-03T10:57:42;1.85;;;1.58;;
9424;SDS011;17139;52.140;11.636;2022-09-03T11:00:14;1.55;;;1.45;;
9424;SDS011;17139;52.140;11.636;2022-09-03T11:02:51;1.35;;;1.25;;
9424;SDS011;17139;52.140;11.636;2022-09-03T11:05:38;1.10;;;1.10;;
9424;SDS011;17139;52.140;11.636;2022-09-03T11:08:11;1.40;;;1.30;;
9424;SDS011;17139;52.140;11.636;2022-09-03T11:10:45;1.30;;;1.20;;
9424;SDS011;17139;52.140;11.636;2022-09-03T11:13:16;4.88;;;1.50;;
9424;SDS011;17139;52.140;11.636;2022-09-03T11:15:50;1.67;;;1.40;;
9424;SDS011;17139;52.140;11.636;2022-09-03T11:18:19;1.63;;;1.52;;
9424;SDS011;17139;52.140;11.636;2022-09-03T11:20:51;5.53;;;1.52;;
9424;SDS011;17139;52.140;11.636;2022-09-03T11:23:22;1.40;;;1.40;;
9424;SDS011;17139;52.140;11.636;2022-09-03T11:25:53;6.10;;;1.63;;
9424;SDS011;17139;52.140;11.636;2022-09-03T11:28:26;1.45;;;1.27;;
9424;SDS011;17139;52.140;11.636;2022-09-03T11:31:05;1.15;;;1.15;;
9424;SDS011;17139;52.140;11.636;2022-09-03T11:33:44;1.80;;;1.50;;
9424;SDS011;17139;52.140;11.636;2022-09-03T11:36:14;1.50;;;1.40;;
9424;SDS011;17139;52.140;11.636;2022-09-03T11:38:53;1.20;;;1.20;;
9424;SDS011;17139;52.140;11.636;2022-09-03T11:41:23;1.77;;;1.73;;
9424;SDS011;17139;52.140;11.636;2022-09-03T11:43:52;2.70;;;1.23;;
9424;SDS011;17139;52.140;11.636;2022-09-03T11:46:27;3.22;;;1.65;;
9424;SDS011;17139;52.140;11.636;2022-09-03T11:48:56;4.40;;;1.30;;
9424;SDS011;17139;52.140;11.636;2022-09-03T11:51:35;1.25;;;1.25;;
9424;SDS011;17139;52.140;11.636;2022-09-03T11:54:22;1.80;;;1.50;;
9424;SDS011;17139;52.140;11.636;2022-09-03T11:56:50;1.58;;;1.48;;
9424;SDS011;17139;52.140;11.636;2022-09-03T11:59:34;1.70;;;1.50;;
9424;SDS011;17139;52.140;11.636;2022-09-03T12:02:02;1.50;;;1.40;;
9424;SDS011;17139;52.140;11.636;2022-09-03T12:04:39;2.13;;;1.40;;
9424;SDS011;17139;52.140;11.636;2022-09-03T12:07:17;9.30;;;1.40;;
9424;SDS011;17139;52.140;11.636;2022-09-03T12:09:59;1.42;;;1.33;;
9424;SDS011;17139;52.140;11.636;2022-09-03T12:12:38;1.55;;;1.27;;
9424;SDS011;17139;52.140;11.636;2022-09-03T12:15:16;1.30;;;1.30;;
9424;SDS011;17139;52.140;11.636;2022-09-03T12:17:59;1.50;;;1.40;;
9424;SDS011;17139;52.140;11.636;2022-09-03T12:20:46;1.50;;;1.45;;
9424;SDS011;17139;52.140;11.636;2022-09-03T12:23:25;3.03;;;1.80;;
9424;SDS011;17139;52.140;11.636;2022-09-03T12:25:56;1.67;;;1.63;;
9424;SDS011;17139;52.140;11.636;2022-09-03T12:28:25;1.27;;;1.23;;
9424;SDS011;17139;52.140;11.636;2022-09-03T12:31:04;1.83;;;1.63;;
9424;SDS011;17139;52.140;11.636;2022-09-03T12:33:46;2.15;;;1.50;;
9424;SDS011;17139;52.140;11.636;2022-09-03T12:36:13;1.38;;;1.38;;
9424;SDS011;17139;52.140;11.636;2022-09-03T12:38:42;1.42;;;1.35;;
9424;SDS011;17139;52.140;11.636;2022-09-03T12:41:25;2.00;;;1.50;;
9424;SDS011;17139;52.140;11.636;2022-09-03T12:43:56;1.35;;;1.35;;
9424;SDS011;17139;52.140;11.636;2022-09-03T12:46:25;1.60;;;1.55;;
9424;SDS011;17139;52.140;11.636;2022-09-03T12:48:54;1.20;;;1.20;;
9424;SDS011;17139;52.140;11.636;2022-09-03T12:51:23;1.38;;;1.38;;
9424;SDS011;17139;52.140;11.636;2022-09-03T12:53:50;1.60;;;1.50;;
9424;SDS011;17139;52.140;11.636;2022-09-03T12:56:18;1.95;;;1.70;;
9424;SDS011;17139;52.140;11.636;2022-09-03T12:58:49;3.50;;;1.70;;
9424;SDS011;17139;52.140;11.636;2022-09-03T13:01:20;2.15;;;1.85;;
9424;SDS011;17139;52.140;11.636;2022-09-03T13:03:51;1.55;;;1.40;;
9424;SDS011;17139;52.140;11.636;2022-09-03T13:06:23;1.40;;;1.40;;
9424;SDS011;17139;52.140;11.636;2022-09-03T13:08:53;2.17;;;1.25;;
9424;SDS011;17139;52.140;11.636;2022-09-03T13:11:22;2.25;;;1.63;;
9424;SDS011;17139;52.140;11.636;2022-09-03T13:13:53;3.00;;;1.58;;
9424;SDS011;17139;52.140;11.636;2022-09-03T13:16:45;1.70;;;1.60;;
9424;SDS011;17139;52.140;11.636;2022-09-03T13:19:22;1.80;;;1.70;;
9424;SDS011;17139;52.140;11.636;2022-09-03T13:21:57;1.55;;;1.45;;
9424;SDS011;17139;52.140;11.636;2022-09-03T13:24:39;1.63;;;1.50;;
9424;SDS011;17139;52.140;11.636;2022-09-03T13:27:30;1.60;;;1.50;;
9424;SDS011;17139;52.140;11.636;2022-09-03T13:30:04;1.77;;;1.00;;
9424;SDS011;17139;52.140;11.636;2022-09-03T13:32:36;1.15;;;1.15;;
9424;SDS011;17139;52.140;11.636;2022-09-03T13:35:10;2.08;;;1.40;;
9424;SDS011;17139;52.140;11.636;2022-09-03T13:37:43;1.20;;;1.20;;
9424;SDS011;17139;52.140;11.636;2022-09-03T13:40:17;1.67;;;1.58;;
9424;SDS011;17139;52.140;11.636;2022-09-03T13:42:55;1.33;;;1.30;;
9424;SDS011;17139;52.140;11.636;2022-09-03T13:45:30;3.85;;;1.52;;
9424;SDS011;17139;52.140;11.636;2022-09-03T13:48:06;1.65;;;1.55;;
9424;SDS011;17139;52.140;11.636;2022-09-03T13:50:57;2.00;;;1.40;;
9424;SDS011;17139;52.140;11.636;2022-09-03T13:53:35;1.30;;;1.30;;
9424;SDS011;17139;52.140;11.636;2022-09-03T13:56:13;1.50;;;1.50;;
9424;SDS011;17139;52.140;11.636;2022-09-03T13:58:47;1.45;;;1.42;;
9424;SDS011;17139;52.140;11.636;2022-09-03T14:01:21;1.70;;;1.60;;
9424;SDS011;17139;52.140;11.636;2022-09-03T14:03:52;1.50;;;1.45;;
9424;SDS011;17139;52.140;11.636;2022-09-03T14:06:24;1.95;;;1.40;;
9424;SDS011;17139;52.140;11.636;2022-09-03T14:09:05;1.95;;;1.40;;
9424;SDS011;17139;52.140;11.636;2022-09-03T14:11:43;1.65;;;1.65;;
9424;SDS011;17139;52.140;11.636;2022-09-03T14:14:19;1.33;;;1.33;;
9424;SDS011;17139;52.140;11.636;2022-09-03T14:16:58;1.27;;;1.27;;
9424;SDS011;17139;52.140;11.636;2022-09-03T14:19:33;1.38;;;1.38;;
9424;SDS011;17139;52.140;11.636;2022-09-03T14:22:05;1.67;;;1.63;;
9424;SDS011;17139;52.140;11.636;2022-09-03T14:24:39;4.07;;;1.85;;
9424;SDS011;17139;52.140;11.636;2022-09-03T14:27:12;1.83;;;1.73;;
9424;SDS011;17139;52.140;11.636;2022-09-03T14:29:49;3.88;;;1.67;;
9424;SDS011;17139;52.140;11.636;2022-09-03T14:32:23;6.57;;;1.30;;
9424;SDS011;17139;52.140;11.636;2022-09-03T14:37:49;1.40;;;1.40;;
9424;SDS011;17139;52.140;11.636;2022-09-03T14:40:33;1.80;;;1.70;;
9424;SDS011;17139;52.140;11.636;2022-09-03T14:43:14;1.58;;;1.58;;
9424;SDS011;17139;52.140;11.636;2022-09-03T14:46:05;6.90;;;1.88;;
9424;SDS011;17139;52.140;11.636;2022-09-03T14:48:56;3.88;;;1.80;;
9424;SDS011;17139;52.140;11.636;2022-09-03T14:51:44;1.40;;;1.40;;
9424;SDS011;17139;52.140;11.636;2022-09-03T14:54:25;1.75;;;1.65;;
9424;SDS011;17139;52.140;11.636;2022-09-03T15:00:06;1.52;;;1.38;;
9424;SDS011;17139;52.140;11.636;2022-09-03T15:02:45;2.15;;;1.58;;
9424;SDS011;17139;52.140;11.636;2022-09-03T15:05:31;3.58;;;1.50;;
9424;SDS011;17139;52.140;11.636;2022-09-03T15:08:09;1.75;;;1.70;;
9424;SDS011;17139;52.140;11.636;2022-09-03T15:10:43;1.60;;;1.50;;
9424;SDS011;17139;52.140;11.636;2022-09-03T15:13:15;4.15;;;1.80;;
9424;SDS011;17139;52.140;11.636;2022-09-03T15:15:48;2.80;;;2.00;;
9424;SDS011;17139;52.140;11.636;2022-09-03T15:18:25;3.65;;;1.55;;
9424;SDS011;17139;52.140;11.636;2022-09-03T15:20:59;3.55;;;1.60;;
9424;SDS011;17139;52.140;11.636;2022-09-03T15:23:40;2.10;;;1.90;;
9424;SDS011;17139;52.140;11.636;2022-09-03T15:26:23;2.00;;;1.90;;
9424;SDS011;17139;52.140;11.636;2022-09-03T15:29:15;1.67;;;1.40;;